createdAt,value
2022-08-11T00:00:37.715Z,102489.78
2022-08-11T00:03:08.761Z,102490.19
2022-08-11T00:05:45.947Z,102484.81
2022-08-11T00:08:22.619Z,102484.81
2022-08-11T00:10:57.821Z,102480.31
2022-08-11T00:13:36.044Z,102479.28
2022-08-11T00:16:07.346Z,102485.25
2022-08-11T00:18:46.444Z,102476.59
2022-08-11T00:21:13.759Z,102486.06
2022-08-11T00:23:53.403Z,102491.81
2022-08-11T00:26:22.195Z,102494.69
2022-08-11T00:28:48.846Z,102493.25
2022-08-11T00:31:31.448Z,102499.63
2022-08-11T00:34:01.201Z,102499.41
2022-08-11T00:36:39.194Z,102489.75
2022-08-11T00:39:08.180Z,102489.97
2022-08-11T00:41:44.387Z,102491.19
2022-08-11T00:44:19.798Z,102491.38
2022-08-11T00:47:14.286Z,102487.69
2022-08-11T00:50:38.092Z,102493.84
2022-08-11T00:53:23.299Z,102494.88
2022-08-11T00:56:04.655Z,102492.44
2022-08-11T00:58:58.293Z,102496.94
2022-08-11T01:02:08.753Z,102493.84
2022-08-11T01:04:41.032Z,102498.78
2022-08-11T01:08:01.806Z,102494.88
2022-08-11T01:10:40.701Z,102501.00
2022-08-11T01:13:39.042Z,102501.22
2022-08-11T01:16:36.651Z,102498.13
2022-08-11T01:19:27.838Z,102487.22
2022-08-11T01:22:25.015Z,102484.06
2022-08-11T01:25:26.995Z,102487.56
2022-08-11T01:28:30.461Z,102487.31
2022-08-11T01:31:29.416Z,102493.25
2022-08-11T01:34:26.536Z,102478.47
2022-08-11T01:37:22.009Z,102490.38
2022-08-11T01:39:51.508Z,102482.78
2022-08-11T01:42:58.446Z,102487.69
2022-08-11T01:45:31.138Z,102485.63
2022-08-11T01:48:22.564Z,102483.72
2022-08-11T01:51:01.234Z,102490.91
2022-08-11T01:53:43.045Z,102481.88
2022-08-11T01:56:28.570Z,102492.13
2022-08-11T01:58:54.994Z,102488.41
2022-08-11T02:01:37.354Z,102495.75
2022-08-11T02:04:09.620Z,102494.91
2022-08-11T02:06:56.798Z,102485.03
2022-08-11T02:09:49.308Z,102484.00
2022-08-11T02:12:23.081Z,102482.53
2022-08-11T02:15:05.142Z,102480.06
2022-08-11T02:18:05.174Z,102489.28
2022-08-11T02:20:59.569Z,102479.81
2022-08-11T02:24:05.522Z,102483.47
2022-08-11T02:26:41.145Z,102480.34
2022-08-11T02:29:25.300Z,102481.31
2022-08-11T02:32:31.077Z,102488.88
2022-08-11T02:35:19.210Z,102483.09
2022-08-11T02:38:07.629Z,102477.78
2022-08-11T02:40:53.441Z,102473.28
2022-08-11T02:43:27.739Z,102486.63
2022-08-11T02:45:54.838Z,102475.97
2022-08-11T02:49:06.081Z,102474.66
2022-08-11T02:51:33.251Z,102476.88
2022-08-11T02:54:14.823Z,102475.63
2022-08-11T02:57:01.094Z,102477.44
2022-08-11T02:59:51.910Z,102476.81
2022-08-11T03:02:31.574Z,102470.66
2022-08-11T03:05:05.124Z,102467.56
2022-08-11T03:07:40.751Z,102472.63
2022-08-11T03:11:12.077Z,102470.09
2022-08-11T03:14:18.017Z,102465.16
2022-08-11T03:16:53.357Z,102464.72
2022-08-11T03:19:41.351Z,102461.06
2022-08-11T03:22:34.379Z,102453.25
2022-08-11T03:25:12.475Z,102463.28
2022-08-11T03:27:45.678Z,102461.16
2022-08-11T03:30:39.444Z,102463.22
2022-08-11T03:33:40.319Z,102463.59
2022-08-11T03:36:27.519Z,102464.78
2022-08-11T03:38:56.870Z,102462.94
2022-08-11T03:42:03.830Z,102466.19
2022-08-11T03:44:50.650Z,102465.75
2022-08-11T03:47:57.093Z,102469.63
2022-08-11T03:50:29.642Z,102458.53
2022-08-11T03:53:18.996Z,102467.72
2022-08-11T03:56:13.010Z,102466.06
2022-08-11T03:58:58.148Z,102465.41
2022-08-11T04:02:02.377Z,102461.66
2022-08-11T04:04:58.864Z,102469.38
2022-08-11T04:07:34.506Z,102468.91
2022-08-11T04:10:01.026Z,102459.47
2022-08-11T04:13:12.387Z,102455.53
2022-08-11T04:16:15.392Z,102455.53
2022-08-11T04:19:19.486Z,102450.22
2022-08-11T04:22:05.040Z,102453.69
2022-08-11T04:25:14.979Z,102452.44
2022-08-11T04:28:00.017Z,102455.50
2022-08-11T04:30:58.929Z,102449.31
2022-08-11T04:33:56.432Z,102451.63
2022-08-11T04:37:04.035Z,102449.78
2022-08-11T04:40:08.554Z,102445.84
2022-08-11T04:43:23.180Z,102448.69
2022-08-11T04:45:55.594Z,102446.88
2022-08-11T04:49:02.043Z,102453.00
2022-08-11T04:52:37.902Z,102451.00
2022-08-11T04:55:51.590Z,102449.97
2022-08-11T04:59:14.714Z,102445.66
2022-08-11T05:02:16.973Z,102447.06
2022-08-11T05:05:14.891Z,102449.53
2022-08-11T05:08:03.485Z,102450.78
2022-08-11T05:11:03.529Z,102445.91
2022-08-11T05:13:57.414Z,102444.34
2022-08-11T05:17:00.031Z,102442.31
2022-08-11T05:19:45.346Z,102444.41
2022-08-11T05:22:31.610Z,102443.41
2022-08-11T05:26:44.065Z,102446.72
2022-08-11T05:28:46.394Z,102455.16
2022-08-11T05:31:34.001Z,102448.63
2022-08-11T05:34:29.948Z,102448.88
2022-08-11T05:37:26.710Z,102458.34
2022-08-11T05:40:19.670Z,102459.16
2022-08-11T05:43:10.220Z,102454.91
2022-08-11T05:46:02.619Z,102470.13
2022-08-11T05:48:53.553Z,102464.03
2022-08-11T05:51:39.965Z,102468.59
2022-08-11T05:54:40.855Z,102464.34
2022-08-11T05:57:08.198Z,102465.59
2022-08-11T05:59:35.083Z,102478.97
2022-08-11T06:02:08.664Z,102472.91
2022-08-11T06:04:35.503Z,102469.66
2022-08-11T06:07:08.850Z,102476.03
2022-08-11T06:09:49.168Z,102474.44
2022-08-11T06:12:23.448Z,102473.69
2022-08-11T06:14:55.230Z,102481.50
2022-08-11T06:17:38.499Z,102475.84
2022-08-11T06:20:11.855Z,102474.69
2022-08-11T06:22:57.370Z,102475.34
2022-08-11T06:25:35.939Z,102470.88
2022-08-11T06:28:07.791Z,102475.88
2022-08-11T06:30:42.830Z,102466.88
2022-08-11T06:33:19.432Z,102462.00
2022-08-11T06:36:07.609Z,102467.16
2022-08-11T06:39:13.705Z,102466.97
2022-08-11T06:41:49.304Z,102476.06
2022-08-11T06:44:24.335Z,102467.66
2022-08-11T06:46:53.257Z,102456.00
2022-08-11T06:49:51.059Z,102457.06
2022-08-11T06:52:34.856Z,102460.97
2022-08-11T06:55:55.735Z,102458.72
2022-08-11T06:58:22.986Z,102459.53
2022-08-11T07:00:56.875Z,102453.78
2022-08-11T07:03:25.448Z,102458.09
2022-08-11T07:05:55.931Z,102457.44
2022-08-11T07:09:00.255Z,102451.22
2022-08-11T07:12:16.546Z,102453.44
2022-08-11T07:15:12.499Z,102458.50
2022-08-11T07:17:49.968Z,102459.25
2022-08-11T07:20:36.742Z,102466.69
2022-08-11T07:23:26.167Z,102463.72
2022-08-11T07:26:13.009Z,102465.91
2022-08-11T07:28:58.664Z,102465.00
2022-08-11T07:31:31.219Z,102461.03
2022-08-11T07:34:17.371Z,102468.63
2022-08-11T07:36:52.659Z,102460.13
2022-08-11T07:39:26.051Z,102465.63
2022-08-11T07:41:55.215Z,102465.91
2022-08-11T07:44:29.399Z,102461.88
2022-08-11T07:47:16.779Z,102459.50
2022-08-11T07:50:04.400Z,102461.22
2022-08-11T07:52:35.125Z,102461.72
2022-08-11T07:55:08.433Z,102460.78
2022-08-11T07:58:14.529Z,102456.53
2022-08-11T08:01:21.969Z,102449.38
2022-08-11T08:04:09.165Z,102451.66
2022-08-11T08:06:56.060Z,102446.25
2022-08-11T08:09:42.157Z,102444.31
2022-08-11T08:12:27.814Z,102455.56
2022-08-11T08:15:14.765Z,102452.63
2022-08-11T08:18:09.568Z,102455.69
2022-08-11T08:20:45.681Z,102452.66
2022-08-11T08:23:13.004Z,102457.16
2022-08-11T08:25:41.505Z,102449.81
2022-08-11T08:28:14.006Z,102446.66
2022-08-11T08:30:55.399Z,102456.03
2022-08-11T08:33:28.232Z,102446.31
2022-08-11T08:36:13.983Z,102448.56
2022-08-11T08:38:48.174Z,102451.69
2022-08-11T08:41:22.477Z,102451.47
2022-08-11T08:43:52.291Z,102446.34
2022-08-11T08:46:23.984Z,102443.03
2022-08-11T08:48:53.200Z,102446.56
2022-08-11T08:52:01.625Z,102444.09
2022-08-11T08:54:37.355Z,102441.69
2022-08-11T08:57:06.515Z,102446.13
2022-08-11T08:59:48.571Z,102440.97
2022-08-11T09:02:22.103Z,102445.22
2022-08-11T09:05:04.228Z,102444.25
2022-08-11T09:07:38.685Z,102437.09
2022-08-11T09:10:08.796Z,102441.28
2022-08-11T09:12:38.813Z,102439.91
2022-08-11T09:15:09.086Z,102442.03
2022-08-11T09:17:41.114Z,102431.91
2022-08-11T09:20:14.732Z,102438.78
2022-08-11T09:26:08.840Z,102431.50
2022-08-11T09:28:36.829Z,102419.50
2022-08-11T09:31:06.256Z,102430.19
2022-08-11T09:33:33.311Z,102432.38
2022-08-11T09:36:20.893Z,102418.50
2022-08-11T09:39:06.685Z,102414.06
2022-08-11T09:42:23.863Z,102417.41
2022-08-11T09:44:41.709Z,102414.69
2022-08-11T09:47:13.497Z,102417.78
2022-08-11T09:49:40.875Z,102410.56
2022-08-11T09:52:09.567Z,102413.31
2022-08-11T09:54:37.069Z,102405.31
2022-08-11T09:57:23.813Z,102407.97
2022-08-11T09:59:53.057Z,102410.81
2022-08-11T10:02:44.801Z,102410.19
2022-08-11T10:05:32.275Z,102410.00
2022-08-11T10:08:01.548Z,102408.78
2022-08-11T10:10:30.028Z,102405.09
2022-08-11T10:13:02.996Z,102407.31
2022-08-11T10:15:41.609Z,102412.78
2022-08-11T10:18:42.273Z,102398.78
2022-08-11T10:21:23.302Z,102395.88
2022-08-11T10:24:11.920Z,102384.50
2022-08-11T10:26:54.861Z,102389.44
2022-08-11T10:29:45.464Z,102384.34
2022-08-11T10:32:57.205Z,102388.19
2022-08-11T10:35:26.346Z,102385.44
2022-08-11T10:38:06.826Z,102377.31
2022-08-11T10:40:38.906Z,102378.13
2022-08-11T10:43:08.036Z,102375.41
2022-08-11T10:45:56.680Z,102379.47
2022-08-11T10:48:27.003Z,102375.13
2022-08-11T10:51:13.518Z,102372.69
2022-08-11T10:54:02.698Z,102358.31
2022-08-11T10:56:49.745Z,102360.69
2022-08-11T10:59:17.223Z,102368.53
2022-08-11T11:01:45.816Z,102359.53
2022-08-11T11:04:15.617Z,102363.81
2022-08-11T11:07:01.223Z,102365.44
2022-08-11T11:09:54.416Z,102357.25
2022-08-11T11:12:43.819Z,102344.97
2022-08-11T11:15:31.302Z,102353.63
2022-08-11T11:18:04.857Z,102345.53
2022-08-11T11:20:46.697Z,102343.56
2022-08-11T11:23:17.280Z,102347.53
2022-08-11T11:26:07.541Z,102350.63
2022-08-11T11:29:15.395Z,102346.16
2022-08-11T11:32:19.438Z,102345.16
2022-08-11T11:34:59.344Z,102343.94
2022-08-11T11:37:26.799Z,102341.47
2022-08-11T11:39:55.267Z,102337.47
2022-08-11T11:42:22.948Z,102345.03
2022-08-11T11:44:52.173Z,102326.78
2022-08-11T11:47:22.991Z,102330.94
2022-08-11T11:49:49.927Z,102330.28
2022-08-11T11:52:19.674Z,102330.34
2022-08-11T11:54:51.347Z,102335.38
2022-08-11T11:57:38.623Z,102342.69
2022-08-11T12:00:33.312Z,102320.59
2022-08-11T12:03:03.252Z,102319.38
2022-08-11T12:05:33.612Z,102325.28
2022-08-11T12:08:17.337Z,102312.50
2022-08-11T12:10:45.527Z,102314.84
2022-08-11T12:13:31.124Z,102310.56
2022-08-11T12:16:34.338Z,102304.91
2022-08-11T12:18:53.450Z,102303.28
2022-08-11T12:21:21.407Z,102303.75
2022-08-11T12:24:07.578Z,102305.78
2022-08-11T12:27:14.653Z,102292.09
2022-08-11T12:29:41.123Z,102293.41
2022-08-11T12:32:10.514Z,102291.50
2022-08-11T12:34:37.245Z,102290.03
2022-08-11T12:37:06.934Z,102293.84
2022-08-11T12:40:15.623Z,102278.47
2022-08-11T12:43:22.298Z,102278.53
2022-08-11T12:45:58.326Z,102276.94
2022-08-11T12:49:00.718Z,102273.41
2022-08-11T12:52:13.120Z,102267.94
2022-08-11T12:54:59.990Z,102259.22
2022-08-11T12:57:47.042Z,102265.56
2022-08-11T13:00:34.497Z,102262.97
2022-08-11T13:03:20.862Z,102261.88
2022-08-11T13:05:51.694Z,102254.91
2022-08-11T13:08:19.958Z,102255.13
2022-08-11T13:11:05.665Z,102256.72
2022-08-11T13:13:52.919Z,102256.94
2022-08-11T13:16:20.609Z,102251.09
2022-08-11T13:18:48.725Z,102251.00
2022-08-11T13:21:20.592Z,102242.50
2022-08-11T13:24:00.318Z,102249.97
2022-08-11T13:26:43.450Z,102239.00
2022-08-11T13:29:19.168Z,102244.44
2022-08-11T13:31:46.875Z,102230.41
2022-08-11T13:34:15.936Z,102237.00
2022-08-11T13:36:43.504Z,102224.78
2022-08-11T13:39:11.004Z,102226.88
2022-08-11T13:41:39.083Z,102229.53
2022-08-11T13:44:12.088Z,102220.38
2022-08-11T13:46:44.420Z,102226.06
2022-08-11T13:49:14.869Z,102221.44
2022-08-11T13:51:41.612Z,102222.94
2022-08-11T13:54:11.884Z,102220.34
2022-08-11T13:56:43.096Z,102215.56
2022-08-11T13:59:10.410Z,102220.13
2022-08-11T14:02:22.976Z,102203.75
2022-08-11T14:04:42.965Z,102209.00
2022-08-11T14:07:11.629Z,102214.13
2022-08-11T14:09:42.456Z,102214.66
2022-08-11T14:12:32.980Z,102210.91
2022-08-11T14:15:08.057Z,102206.75
2022-08-11T14:17:48.438Z,102203.53
2022-08-11T14:20:38.110Z,102198.13
2022-08-11T14:23:06.076Z,102208.28
2022-08-11T14:26:00.818Z,102196.00
2022-08-11T14:28:34.146Z,102193.97
2022-08-11T14:31:05.368Z,102195.63
2022-08-11T14:33:57.982Z,102194.81
2022-08-11T14:36:23.299Z,102188.25
2022-08-11T14:38:50.745Z,102185.66
2022-08-11T14:41:36.443Z,102185.84
2022-08-11T14:44:22.671Z,102181.44
2022-08-11T14:47:05.674Z,102184.47
2022-08-11T14:49:58.628Z,102179.50
2022-08-11T14:52:43.362Z,102173.66
2022-08-11T14:55:30.250Z,102177.03
2022-08-11T14:57:58.963Z,102172.03
2022-08-11T15:00:26.779Z,102161.81
2022-08-11T15:03:13.719Z,102169.50
2022-08-11T15:05:58.390Z,102169.69
2022-08-11T15:08:52.430Z,102167.47
2022-08-11T15:11:41.465Z,102154.81
2022-08-11T15:14:09.933Z,102158.34
2022-08-11T15:16:56.705Z,102147.34
2022-08-11T15:19:25.080Z,102151.00
2022-08-11T15:22:10.243Z,102154.09
2022-08-11T15:24:37.409Z,102155.09
2022-08-11T15:27:32.664Z,102151.75
2022-08-11T15:30:33.265Z,102146.41
2022-08-11T15:33:25.619Z,102142.28
2022-08-11T15:36:11.387Z,102145.81
2022-08-11T15:38:44.677Z,102147.34
2022-08-11T15:41:34.385Z,102137.13
2022-08-11T15:44:44.723Z,102138.78
2022-08-11T15:47:14.310Z,102130.88
2022-08-11T15:50:11.127Z,102126.22
2022-08-11T15:52:37.892Z,102123.72
2022-08-11T15:55:08.686Z,102123.44
2022-08-11T15:57:55.606Z,102125.88
2022-08-11T16:00:41.349Z,102122.63
2022-08-11T16:03:54.388Z,102112.63
2022-08-11T16:06:16.475Z,102116.53
2022-08-11T16:08:44.933Z,102116.88
2022-08-11T16:11:13.370Z,102107.69
2022-08-11T16:13:40.599Z,102108.56
2022-08-11T16:16:16.508Z,102105.66
2022-08-11T16:18:51.582Z,102102.03
2022-08-11T16:21:33.809Z,102095.03
2022-08-11T16:24:07.673Z,102104.66
2022-08-11T16:27:07.522Z,102107.56
2022-08-11T16:29:26.106Z,102104.97
2022-08-11T16:32:15.317Z,102101.47
2022-08-11T16:35:02.843Z,102095.50
2022-08-11T16:37:50.720Z,102102.88
2022-08-11T16:40:19.124Z,102096.94
2022-08-11T16:43:10.371Z,102102.19
2022-08-11T16:45:58.464Z,102103.16
2022-08-11T16:48:36.104Z,102100.63
2022-08-11T16:51:08.498Z,102096.38
2022-08-11T16:53:59.802Z,102098.38
2022-08-11T16:56:28.373Z,102105.53
2022-08-11T16:59:15.558Z,102093.69
2022-08-11T17:01:47.745Z,102095.34
2022-08-11T17:04:39.484Z,102092.72
2022-08-11T17:07:42.041Z,102095.81
2022-08-11T17:10:50.808Z,102090.75
2022-08-11T17:13:25.891Z,102092.22
2022-08-11T17:16:08.990Z,102093.13
2022-08-11T17:19:05.314Z,102090.19
2022-08-11T17:21:57.376Z,102084.31
2022-08-11T17:24:27.629Z,102092.59
2022-08-11T17:26:57.201Z,102092.75
2022-08-11T17:29:54.557Z,102084.63
2022-08-11T17:32:57.072Z,102083.38
2022-08-11T17:35:32.826Z,102078.91
2022-08-11T17:38:16.783Z,102075.41
2022-08-11T17:41:05.649Z,102078.22
2022-08-11T17:43:51.789Z,102081.84
2022-08-11T17:46:38.246Z,102082.47
2022-08-11T17:49:09.777Z,102089.38
2022-08-11T17:51:57.248Z,102087.28
2022-08-11T17:54:43.961Z,102088.69
2022-08-11T17:57:32.098Z,102092.84
2022-08-11T18:00:00.568Z,102089.66
2022-08-11T18:02:56.591Z,102093.78
2022-08-11T18:05:27.942Z,102099.25
2022-08-11T18:08:17.289Z,102096.06
2022-08-11T18:11:04.634Z,102093.41
2022-08-11T18:13:57.037Z,102101.66
2022-08-11T18:16:42.248Z,102097.41
2022-08-11T18:19:28.231Z,102098.28
2022-08-11T18:22:27.275Z,102105.47
2022-08-11T18:25:16.925Z,102103.59
2022-08-11T18:28:06.206Z,102108.84
2022-08-11T18:31:03.868Z,102109.75
2022-08-11T18:34:06.947Z,102107.91
2022-08-11T18:36:57.816Z,102111.44
2022-08-11T18:39:45.839Z,102114.13
2022-08-11T18:42:43.525Z,102112.28
2022-08-11T18:45:39.928Z,102105.59
2022-08-11T18:48:35.931Z,102115.88
2022-08-11T18:51:31.652Z,102115.31
2022-08-11T18:54:27.156Z,102115.34
2022-08-11T18:57:15.277Z,102122.66
2022-08-11T19:00:04.394Z,102125.59
2022-08-11T19:02:50.746Z,102127.47
2022-08-11T19:06:05.923Z,102123.97
2022-08-11T19:08:48.893Z,102128.03
2022-08-11T19:11:34.646Z,102139.91
2022-08-11T19:14:27.990Z,102143.94
2022-08-11T19:17:43.879Z,102140.16
2022-08-11T19:20:27.164Z,102144.22
2022-08-11T19:23:16.762Z,102142.84
2022-08-11T19:26:03.553Z,102146.31
2022-08-11T19:28:49.564Z,102147.38
2022-08-11T19:31:35.292Z,102152.50
2022-08-11T19:34:21.719Z,102145.13
2022-08-11T19:37:07.736Z,102155.13
2022-08-11T19:39:53.589Z,102153.47
2022-08-11T19:42:40.718Z,102146.44
2022-08-11T19:45:26.645Z,102157.97
2022-08-11T19:48:31.262Z,102157.66
2022-08-11T19:51:18.598Z,102161.09
2022-08-11T19:54:06.188Z,102165.91
2022-08-11T19:56:53.124Z,102160.19
2022-08-11T19:59:40.921Z,102159.84
2022-08-11T20:02:26.859Z,102155.75
2022-08-11T20:05:12.237Z,102161.84
2022-08-11T20:07:57.312Z,102159.06
2022-08-11T20:10:45.260Z,102169.00
2022-08-11T20:13:32.572Z,102172.44
2022-08-11T20:16:18.558Z,102164.78
2022-08-11T20:19:05.451Z,102169.00
2022-08-11T20:21:54.690Z,102173.22
2022-08-11T20:24:40.610Z,102171.75
2022-08-11T20:27:27.892Z,102178.06
2022-08-11T20:30:16.376Z,102170.91
2022-08-11T20:33:03.603Z,102172.84
2022-08-11T20:35:51.453Z,102174.09
2022-08-11T20:38:40.452Z,102176.16
2022-08-11T20:41:28.250Z,102167.56
2022-08-11T20:44:15.448Z,102177.19
2022-08-11T20:47:02.286Z,102176.72
2022-08-11T20:49:55.218Z,102173.06
2022-08-11T20:52:47.256Z,102169.03
2022-08-11T20:55:51.684Z,102181.50
2022-08-11T21:01:45.543Z,102180.69
2022-08-11T21:04:32.547Z,102195.38
2022-08-11T21:07:28.523Z,102188.63
2022-08-11T21:10:23.804Z,102188.28
2022-08-11T21:13:25.573Z,102190.38
2022-08-11T21:16:25.208Z,102189.81
2022-08-11T21:19:15.939Z,102189.63
2022-08-11T21:22:03.833Z,102187.66
2022-08-11T21:24:51.414Z,102187.19
2022-08-11T21:27:38.295Z,102188.19
2022-08-11T21:30:24.215Z,102187.59
2022-08-11T21:33:11.195Z,102184.81
2022-08-11T21:35:56.497Z,102182.47
2022-08-11T21:38:41.599Z,102178.47
2022-08-11T21:41:28.528Z,102179.63
2022-08-11T21:44:14.615Z,102175.63
2022-08-11T21:47:00.625Z,102184.91
2022-08-11T21:49:48.086Z,102187.25
2022-08-11T21:52:33.596Z,102181.28
2022-08-11T21:55:19.707Z,102174.75
2022-08-11T21:58:06.622Z,102173.59
2022-08-11T22:00:52.798Z,102176.31
2022-08-11T22:03:49.874Z,102176.22
2022-08-11T22:06:36.313Z,102176.09
2022-08-11T22:09:22.453Z,102174.47
2022-08-11T22:12:34.481Z,102174.00
2022-08-11T22:15:13.351Z,102174.34
2022-08-11T22:17:58.833Z,102177.50
2022-08-11T22:20:46.055Z,102178.19
2022-08-11T22:23:37.016Z,102171.28
2022-08-11T22:26:23.085Z,102171.66
2022-08-11T22:29:09.344Z,102170.97
2022-08-11T22:31:55.366Z,102168.38
2022-08-11T22:34:53.446Z,102168.72
2022-08-11T22:37:39.407Z,102161.22
2022-08-11T22:40:26.426Z,102166.94
2022-08-11T22:43:11.840Z,102168.53
2022-08-11T22:45:57.309Z,102165.13
2022-08-11T22:48:47.325Z,102166.88
2022-08-11T22:51:34.543Z,102166.75
2022-08-11T22:54:22.213Z,102164.75
2022-08-11T22:57:08.885Z,102171.97
2022-08-11T22:59:55.453Z,102168.41
2022-08-11T23:02:40.790Z,102159.41
2022-08-11T23:05:27.572Z,102167.81
2022-08-11T23:08:15.416Z,102163.88
2022-08-11T23:11:01.678Z,102164.47
2022-08-11T23:13:47.935Z,102167.16
2022-08-11T23:16:33.551Z,102169.03
2022-08-11T23:20:01.592Z,102169.25
2022-08-11T23:22:39.490Z,102177.75
2022-08-11T23:25:29.960Z,102182.97
2022-08-11T23:28:17.677Z,102180.16
2022-08-11T23:31:03.758Z,102176.28
2022-08-11T23:33:52.101Z,102170.81
2022-08-11T23:36:47.426Z,102171.25
2022-08-11T23:39:34.093Z,102175.69
2022-08-11T23:42:21.165Z,102175.31
2022-08-11T23:45:07.265Z,102171.47
2022-08-11T23:47:57.323Z,102173.97
2022-08-11T23:50:43.395Z,102182.22
2022-08-11T23:53:28.792Z,102180.00
2022-08-11T23:56:14.044Z,102173.47
2022-08-11T23:58:59.805Z,102175.53
